createdAt,value
2017-10-24T00:00:57.190Z,8.10
2017-10-24T00:03:24.807Z,8.10
2017-10-24T00:05:52.434Z,8.10
2017-10-24T00:08:20.005Z,8.00
2017-10-24T00:10:47.623Z,8.00
2017-10-24T00:13:15.960Z,7.90
2017-10-24T00:15:43.583Z,7.90
2017-10-24T00:18:11.190Z,7.90
2017-10-24T00:20:38.810Z,7.90
2017-10-24T00:23:06.423Z,7.90
2017-10-24T00:25:33.996Z,7.90
2017-10-24T00:28:01.631Z,7.80
2017-10-24T00:30:29.258Z,7.80
2017-10-24T00:32:56.921Z,7.80
2017-10-24T00:35:24.540Z,7.80
2017-10-24T00:37:52.151Z,7.80
2017-10-24T00:40:19.729Z,7.80
2017-10-24T00:42:47.356Z,7.70
2017-10-24T00:45:15.006Z,7.70
2017-10-24T00:47:42.642Z,7.70
2017-10-24T00:50:10.251Z,7.70
2017-10-24T00:52:37.863Z,7.60
2017-10-24T00:55:05.441Z,7.60
2017-10-24T00:57:33.082Z,7.60
2017-10-24T01:00:00.684Z,7.60
2017-10-24T01:02:28.338Z,7.60
2017-10-24T01:04:55.909Z,7.60
2017-10-24T01:07:23.538Z,7.60
2017-10-24T01:09:51.934Z,7.50
2017-10-24T01:12:19.551Z,7.50
2017-10-24T01:14:47.162Z,7.40
2017-10-24T01:17:14.788Z,7.40
2017-10-24T01:19:42.432Z,7.40
2017-10-24T01:22:10.082Z,7.40
2017-10-24T01:24:37.692Z,7.30
2017-10-24T01:27:05.327Z,7.30
2017-10-24T01:29:32.955Z,7.20
2017-10-24T01:32:00.596Z,7.20
2017-10-24T01:34:28.204Z,7.10
2017-10-24T01:36:55.851Z,7.10
2017-10-24T01:39:23.472Z,7.10
2017-10-24T01:41:51.868Z,7.10
2017-10-24T01:44:19.479Z,7.00
2017-10-24T01:46:47.126Z,7.00
2017-10-24T01:49:14.719Z,7.10
2017-10-24T01:51:42.347Z,7.00
2017-10-24T01:54:10.072Z,7.00
2017-10-24T01:56:37.663Z,7.00
2017-10-24T01:59:05.248Z,7.10
2017-10-24T02:01:32.883Z,7.20
2017-10-24T02:04:00.523Z,7.10
2017-10-24T02:06:28.124Z,7.10
2017-10-24T02:08:55.772Z,7.20
2017-10-24T02:11:23.406Z,7.20
2017-10-24T02:13:51.050Z,7.20
2017-10-24T02:16:18.639Z,7.20
2017-10-24T02:18:46.278Z,7.20
2017-10-24T02:21:13.958Z,7.30
2017-10-24T02:23:41.538Z,7.20
2017-10-24T02:26:09.120Z,7.20
2017-10-24T02:28:36.779Z,7.20
2017-10-24T02:31:04.389Z,7.20
2017-10-24T02:33:32.013Z,7.30
2017-10-24T02:36:00.428Z,7.20
2017-10-24T02:38:28.053Z,7.30
2017-10-24T02:40:55.792Z,7.30
2017-10-24T02:43:23.408Z,7.20
2017-10-24T02:45:51.101Z,7.30
2017-10-24T02:48:18.731Z,7.30
2017-10-24T02:50:46.352Z,7.30
2017-10-24T02:53:13.932Z,7.30
2017-10-24T02:55:41.587Z,7.30
2017-10-24T02:58:09.223Z,7.30
2017-10-24T03:00:36.838Z,7.30
2017-10-24T03:03:04.448Z,7.30
2017-10-24T03:05:32.070Z,7.30
2017-10-24T03:07:59.669Z,7.40
2017-10-24T03:10:27.294Z,7.40
2017-10-24T03:12:54.906Z,7.40
2017-10-24T03:15:22.529Z,7.50
2017-10-24T03:17:50.154Z,7.40
2017-10-24T03:20:17.795Z,7.40
2017-10-24T03:22:45.436Z,7.50
2017-10-24T03:25:13.074Z,7.50
2017-10-24T03:27:40.664Z,7.50
2017-10-24T03:30:08.281Z,7.50
2017-10-24T03:32:35.875Z,7.50
2017-10-24T03:35:03.487Z,7.60
2017-10-24T03:37:31.876Z,7.60
2017-10-24T03:39:59.460Z,7.60
2017-10-24T03:42:27.083Z,7.60
2017-10-24T03:44:55.458Z,7.60
2017-10-24T03:47:23.842Z,7.70
2017-10-24T03:49:52.198Z,7.70
2017-10-24T03:52:19.780Z,7.70
2017-10-24T03:54:47.403Z,7.70
2017-10-24T03:57:15.085Z,7.70
2017-10-24T03:59:42.704Z,7.80
2017-10-24T04:02:10.300Z,7.80
2017-10-24T04:04:37.932Z,7.80
2017-10-24T04:07:05.519Z,7.80
2017-10-24T04:09:33.104Z,7.80
2017-10-24T04:12:01.494Z,7.90
2017-10-24T04:14:29.208Z,7.90
2017-10-24T04:16:56.884Z,7.90
2017-10-24T04:19:24.497Z,7.90
2017-10-24T04:21:52.130Z,8.00
2017-10-24T04:24:19.724Z,8.00
2017-10-24T04:26:47.361Z,8.00
2017-10-24T04:29:14.995Z,8.00
2017-10-24T04:31:42.683Z,8.10
2017-10-24T04:34:11.080Z,8.10
2017-10-24T04:36:38.715Z,8.10
2017-10-24T04:39:06.343Z,8.20
2017-10-24T04:41:33.980Z,8.20
2017-10-24T04:44:01.603Z,8.20
2017-10-24T04:46:29.218Z,8.20
2017-10-24T04:48:56.880Z,8.10
2017-10-24T04:51:24.495Z,8.20
2017-10-24T04:53:52.879Z,8.20
2017-10-24T04:56:21.358Z,8.20
2017-10-24T04:58:49.023Z,8.20
2017-10-24T05:01:16.658Z,8.30
2017-10-24T05:03:44.300Z,8.30
2017-10-24T05:06:11.960Z,8.20
2017-10-24T05:08:40.327Z,8.20
2017-10-24T05:11:09.139Z,8.20
2017-10-24T05:13:37.695Z,8.20
2017-10-24T05:16:06.461Z,8.20
2017-10-24T05:18:34.931Z,8.30
2017-10-24T05:21:03.433Z,8.30
2017-10-24T05:23:31.935Z,8.30
2017-10-24T05:26:00.137Z,8.30
2017-10-24T05:28:29.352Z,8.30
2017-10-24T05:30:57.844Z,8.30
2017-10-24T05:33:26.240Z,8.30
2017-10-24T05:35:55.669Z,8.30
2017-10-24T05:38:24.399Z,8.30
2017-10-24T05:40:52.608Z,8.30
2017-10-24T05:43:20.806Z,8.30
2017-10-24T05:45:50.182Z,8.30
2017-10-24T05:48:19.440Z,8.30
2017-10-24T05:50:48.229Z,8.30
2017-10-24T05:53:18.649Z,8.30
2017-10-24T05:55:48.073Z,8.30
2017-10-24T05:58:16.453Z,8.40
2017-10-24T06:00:44.769Z,8.40
2017-10-24T06:03:12.833Z,8.40
2017-10-24T06:05:40.983Z,8.40
2017-10-24T06:08:09.364Z,8.40
2017-10-24T06:10:37.621Z,8.40
2017-10-24T06:13:05.799Z,8.40
2017-10-24T06:15:34.945Z,8.40
2017-10-24T06:18:03.334Z,8.40
2017-10-24T06:20:31.563Z,8.40
2017-10-24T06:23:01.223Z,8.40
2017-10-24T06:25:29.471Z,8.50
2017-10-24T06:27:57.175Z,8.50
2017-10-24T06:30:25.740Z,8.50
2017-10-24T06:32:54.157Z,8.50
2017-10-24T06:35:21.923Z,8.50
2017-10-24T06:37:49.693Z,8.50
2017-10-24T06:40:18.185Z,8.60
2017-10-24T06:42:45.854Z,8.60
2017-10-24T06:45:14.204Z,8.60
2017-10-24T06:47:41.811Z,8.60
2017-10-24T06:50:09.686Z,8.60
2017-10-24T06:52:37.350Z,8.60
2017-10-24T06:55:05.019Z,8.60
2017-10-24T06:57:32.630Z,8.70
2017-10-24T07:00:00.795Z,8.70
2017-10-24T07:02:28.607Z,8.70
2017-10-24T07:04:56.310Z,8.70
2017-10-24T07:07:23.955Z,8.80
2017-10-24T07:09:51.537Z,8.80
2017-10-24T07:12:19.189Z,8.80
2017-10-24T07:14:46.816Z,8.80
2017-10-24T07:17:14.428Z,8.80
2017-10-24T07:19:42.057Z,8.90
2017-10-24T07:22:09.666Z,8.90
2017-10-24T07:24:37.283Z,8.90
2017-10-24T07:27:04.875Z,8.90
2017-10-24T07:29:32.963Z,9.00
2017-10-24T07:32:00.839Z,9.00
2017-10-24T07:34:28.464Z,9.10
2017-10-24T07:36:56.075Z,9.10
2017-10-24T07:39:23.654Z,9.10
2017-10-24T07:41:51.435Z,9.20
2017-10-24T07:44:19.026Z,9.20
2017-10-24T07:46:46.616Z,9.30
2017-10-24T07:49:14.619Z,9.30
2017-10-24T07:51:42.293Z,9.40
2017-10-24T07:54:09.866Z,9.50
2017-10-24T07:56:37.480Z,9.50
2017-10-24T07:59:05.111Z,9.60
2017-10-24T08:01:32.703Z,9.60
2017-10-24T08:04:00.310Z,9.70
2017-10-24T08:06:27.925Z,9.80
2017-10-24T08:08:55.558Z,9.80
2017-10-24T08:11:23.198Z,9.90
2017-10-24T08:13:50.812Z,9.90
2017-10-24T08:16:18.393Z,10.00
2017-10-24T08:18:46.023Z,10.00
2017-10-24T08:21:13.646Z,10.00
2017-10-24T08:23:41.278Z,10.00
2017-10-24T08:26:08.906Z,10.00
2017-10-24T08:28:36.532Z,10.00
2017-10-24T08:31:04.970Z,10.10
2017-10-24T08:33:32.620Z,10.10
2017-10-24T08:36:00.238Z,10.20
2017-10-24T08:38:28.026Z,10.20
2017-10-24T08:40:55.798Z,10.20
2017-10-24T08:43:23.398Z,10.20
2017-10-24T08:45:51.033Z,10.30
2017-10-24T08:48:18.651Z,10.40
2017-10-24T08:50:46.335Z,10.40
2017-10-24T08:53:13.978Z,10.40
2017-10-24T08:55:41.911Z,10.40
2017-10-24T08:58:09.670Z,10.40
2017-10-24T09:00:37.316Z,10.40
2017-10-24T09:03:04.967Z,10.40
2017-10-24T09:05:32.588Z,10.50
2017-10-24T09:08:00.231Z,10.50
2017-10-24T09:14:18.126Z,10.50
2017-10-24T09:16:58.272Z,10.60
2017-10-24T09:22:41.167Z,10.60
2017-10-24T09:25:08.785Z,10.60
2017-10-24T09:27:37.190Z,10.80
2017-10-24T09:30:04.818Z,10.70
2017-10-24T09:32:42.446Z,10.80
2017-10-24T09:35:10.088Z,10.80
2017-10-24T09:37:37.692Z,10.80
2017-10-24T09:40:05.610Z,10.90
2017-10-24T09:42:33.323Z,10.90
2017-10-24T09:45:00.966Z,10.90
2017-10-24T09:47:28.595Z,11.00
2017-10-24T09:49:57.773Z,11.10
2017-10-24T09:52:25.421Z,11.00
2017-10-24T09:54:53.035Z,11.10
2017-10-24T09:57:20.657Z,11.20
2017-10-24T09:59:51.894Z,11.30
2017-10-24T10:02:19.507Z,11.40
2017-10-24T10:04:47.089Z,11.50
2017-10-24T10:07:14.668Z,11.50
2017-10-24T10:09:42.291Z,11.50
2017-10-24T10:12:09.959Z,11.60
2017-10-24T10:14:37.583Z,11.50
2017-10-24T10:17:05.222Z,11.60
2017-10-24T10:19:32.822Z,11.70
2017-10-24T10:22:01.191Z,11.80
2017-10-24T10:24:32.352Z,11.90
2017-10-24T10:27:00.749Z,11.90
2017-10-24T10:29:28.378Z,11.80
2017-10-24T10:31:55.977Z,11.80
2017-10-24T10:34:23.598Z,11.90
2017-10-24T10:36:51.254Z,11.80
2017-10-24T10:39:18.901Z,11.80
2017-10-24T10:41:46.517Z,11.80
2017-10-24T10:44:14.166Z,11.80
2017-10-24T10:46:41.785Z,11.90
2017-10-24T10:49:09.403Z,11.90
2017-10-24T10:51:37.018Z,11.90
2017-10-24T10:54:04.597Z,11.90
2017-10-24T10:56:32.976Z,12.00
2017-10-24T10:59:01.384Z,12.00
2017-10-24T11:01:29.016Z,12.00
2017-10-24T11:03:56.596Z,12.00
2017-10-24T11:06:24.218Z,12.00
2017-10-24T11:08:51.845Z,12.10
2017-10-24T11:11:19.463Z,12.10
2017-10-24T11:13:47.079Z,12.20
2017-10-24T11:16:14.709Z,12.30
2017-10-24T11:18:42.392Z,12.30
2017-10-24T11:21:10.006Z,12.30
2017-10-24T11:23:38.383Z,12.30
2017-10-24T11:26:06.773Z,12.30
2017-10-24T11:28:35.169Z,12.40
2017-10-24T11:31:02.799Z,12.40
2017-10-24T11:33:30.455Z,12.40
2017-10-24T11:35:58.096Z,12.40
2017-10-24T11:38:25.727Z,12.40
2017-10-24T11:40:53.347Z,12.40
2017-10-24T11:43:21.810Z,12.20
2017-10-24T11:45:49.426Z,12.20
2017-10-24T11:48:17.072Z,12.20
2017-10-24T11:50:44.683Z,12.20
2017-10-24T11:53:12.293Z,12.20
2017-10-24T11:55:39.838Z,12.10
2017-10-24T11:58:07.459Z,12.10
2017-10-24T12:00:35.087Z,12.10
2017-10-24T12:03:02.704Z,12.20
2017-10-24T12:05:30.282Z,12.30
2017-10-24T12:07:58.658Z,12.60
2017-10-24T12:10:26.276Z,12.60
2017-10-24T12:12:53.894Z,12.60
2017-10-24T12:15:21.528Z,12.70
2017-10-24T12:17:49.157Z,12.70
2017-10-24T12:20:16.770Z,12.60
2017-10-24T12:22:44.386Z,12.70
2017-10-24T12:25:11.999Z,12.80
2017-10-24T12:27:40.415Z,12.70
2017-10-24T12:30:08.031Z,12.70
2017-10-24T12:32:36.435Z,12.50
2017-10-24T12:35:04.186Z,12.50
2017-10-24T12:37:31.816Z,12.50
2017-10-24T12:39:59.439Z,12.40
2017-10-24T12:42:27.054Z,12.40
2017-10-24T12:44:59.591Z,12.40
2017-10-24T12:47:27.226Z,12.40
2017-10-24T12:50:00.459Z,12.40
2017-10-24T12:52:28.052Z,12.30
2017-10-24T12:54:56.435Z,12.30
2017-10-24T12:57:34.741Z,12.30
2017-10-24T13:00:02.360Z,12.30
2017-10-24T13:02:29.943Z,12.30
2017-10-24T13:04:57.571Z,12.30
2017-10-24T13:07:25.194Z,12.30
2017-10-24T13:09:53.566Z,12.40
2017-10-24T13:12:21.161Z,12.30
2017-10-24T13:14:49.547Z,12.40
2017-10-24T13:17:17.934Z,12.50
2017-10-24T13:19:45.739Z,12.50
2017-10-24T13:22:13.349Z,12.50
2017-10-24T13:24:40.922Z,12.50
2017-10-24T13:27:08.491Z,12.60
2017-10-24T13:29:36.104Z,12.60
2017-10-24T13:32:03.693Z,12.60
2017-10-24T13:34:31.298Z,12.60
2017-10-24T13:36:58.903Z,12.60
2017-10-24T13:39:26.514Z,12.60
2017-10-24T13:41:54.134Z,12.60
2017-10-24T13:44:21.744Z,12.50
2017-10-24T13:46:49.351Z,12.50
2017-10-24T13:49:16.954Z,12.50
2017-10-24T13:51:44.525Z,12.50
2017-10-24T13:54:12.133Z,12.50
2017-10-24T13:56:39.738Z,12.50
2017-10-24T13:59:07.417Z,12.50
2017-10-24T14:01:35.000Z,12.50
2017-10-24T14:04:02.618Z,12.50
2017-10-24T14:06:35.900Z,12.50
2017-10-24T14:09:10.263Z,12.60
2017-10-24T14:11:38.634Z,12.60
2017-10-24T14:14:07.072Z,12.60
2017-10-24T14:16:34.682Z,12.60
2017-10-24T14:19:02.287Z,12.50
2017-10-24T14:21:29.920Z,12.50
2017-10-24T14:23:57.530Z,12.50
2017-10-24T14:26:25.138Z,12.40
2017-10-24T14:28:52.760Z,12.50
2017-10-24T14:31:20.378Z,12.50
2017-10-24T14:33:47.990Z,12.50
2017-10-24T14:36:15.604Z,12.40
2017-10-24T14:38:43.215Z,12.40
2017-10-24T14:41:10.882Z,12.30
2017-10-24T14:43:39.226Z,12.20
2017-10-24T14:46:06.790Z,12.20
2017-10-24T14:48:34.398Z,12.20
2017-10-24T14:51:03.173Z,12.20
2017-10-24T14:53:31.568Z,12.10
2017-10-24T14:55:59.951Z,12.10
2017-10-24T14:58:27.524Z,12.10
2017-10-24T15:00:55.093Z,12.00
2017-10-24T15:03:22.703Z,12.00
2017-10-24T15:05:50.356Z,12.00
2017-10-24T15:08:17.970Z,11.90
2017-10-24T15:10:45.600Z,12.00
2017-10-24T15:13:14.019Z,11.90
2017-10-24T15:15:41.600Z,11.90
2017-10-24T15:18:09.224Z,11.90
2017-10-24T15:20:36.841Z,11.80
2017-10-24T15:23:04.452Z,11.80
2017-10-24T15:25:32.077Z,11.70
2017-10-24T15:27:59.657Z,11.70
2017-10-24T15:30:27.279Z,11.70
2017-10-24T15:32:54.893Z,11.60
2017-10-24T15:35:22.638Z,11.50
2017-10-24T15:37:51.018Z,11.40
2017-10-24T15:40:19.442Z,11.30
2017-10-24T15:42:47.055Z,11.30
2017-10-24T15:45:14.678Z,11.30
2017-10-24T15:47:42.307Z,11.20
2017-10-24T15:50:09.883Z,11.10
2017-10-24T15:52:37.506Z,11.10
2017-10-24T15:55:05.087Z,11.00
2017-10-24T15:57:32.666Z,10.90
2017-10-24T16:00:00.244Z,10.90
2017-10-24T16:02:28.051Z,10.80
2017-10-24T16:04:55.646Z,10.80
2017-10-24T16:07:23.223Z,10.70
2017-10-24T16:09:50.849Z,10.70
2017-10-24T16:12:18.384Z,10.60
2017-10-24T16:14:45.999Z,10.60
2017-10-24T16:17:13.619Z,10.50
2017-10-24T16:19:41.235Z,10.50
2017-10-24T16:22:08.893Z,10.40
2017-10-24T16:24:36.468Z,10.30
2017-10-24T16:27:04.149Z,10.30
2017-10-24T16:29:32.546Z,10.20
2017-10-24T16:32:00.166Z,10.20
2017-10-24T16:34:28.473Z,10.20
2017-10-24T16:36:56.086Z,10.10
2017-10-24T16:39:23.702Z,10.10
2017-10-24T16:41:51.319Z,10.00
2017-10-24T16:44:18.958Z,10.00
2017-10-24T16:46:46.570Z,10.00
2017-10-24T16:49:14.908Z,9.90
2017-10-24T16:51:42.567Z,9.90
2017-10-24T16:54:10.185Z,9.90
2017-10-24T16:56:38.569Z,9.80
2017-10-24T16:59:06.140Z,9.80
2017-10-24T17:01:33.781Z,9.80
2017-10-24T17:04:02.184Z,9.70
2017-10-24T17:06:29.806Z,9.70
2017-10-24T17:09:05.946Z,9.70
2017-10-24T17:11:33.556Z,9.70
2017-10-24T17:14:01.175Z,9.70
2017-10-24T17:16:32.435Z,9.70
2017-10-24T17:19:00.005Z,9.70
2017-10-24T17:21:27.622Z,9.70
2017-10-24T17:23:55.234Z,9.70
2017-10-24T17:26:22.863Z,9.70
2017-10-24T17:28:50.447Z,9.60
2017-10-24T17:31:18.082Z,9.60
2017-10-24T17:33:45.654Z,9.60
2017-10-24T17:36:13.245Z,9.50
2017-10-24T17:38:40.869Z,9.50
2017-10-24T17:41:09.990Z,9.50
2017-10-24T17:43:38.378Z,9.50
2017-10-24T17:46:06.760Z,9.40
2017-10-24T17:48:34.426Z,9.40
2017-10-24T17:51:01.999Z,9.40
2017-10-24T17:53:29.613Z,9.40
2017-10-24T17:55:57.239Z,9.40
2017-10-24T17:58:24.946Z,9.40
2017-10-24T18:00:52.566Z,9.40
2017-10-24T18:03:20.206Z,9.40
2017-10-24T18:05:47.780Z,9.40
2017-10-24T18:08:15.398Z,9.40
2017-10-24T18:10:43.017Z,9.40
2017-10-24T18:13:10.632Z,9.50
2017-10-24T18:15:39.382Z,9.50
2017-10-24T18:18:07.007Z,9.50
2017-10-24T18:20:34.630Z,9.50
2017-10-24T18:23:03.224Z,9.60
2017-10-24T18:25:30.869Z,9.60
2017-10-24T18:27:58.450Z,9.60
2017-10-24T18:30:26.072Z,9.70
2017-10-24T18:32:53.677Z,9.70
2017-10-24T18:35:21.269Z,9.70
2017-10-24T18:37:48.858Z,9.70
2017-10-24T18:40:16.507Z,9.70
2017-10-24T18:42:45.329Z,9.70
2017-10-24T18:45:13.768Z,9.70
2017-10-24T18:47:41.358Z,9.70
2017-10-24T18:50:08.995Z,9.70
2017-10-24T18:52:36.617Z,9.70
2017-10-24T18:55:04.242Z,9.70
2017-10-24T18:57:31.843Z,9.70
2017-10-24T18:59:59.523Z,9.70
2017-10-24T19:02:27.257Z,9.70
2017-10-24T19:04:54.891Z,9.70
2017-10-24T19:07:22.504Z,9.70
2017-10-24T19:09:50.140Z,9.60
2017-10-24T19:12:17.834Z,9.60
2017-10-24T19:14:45.466Z,9.60
2017-10-24T19:17:13.096Z,9.60
2017-10-24T19:19:40.746Z,9.60
2017-10-24T19:22:08.365Z,9.60
2017-10-24T19:24:35.929Z,9.70
2017-10-24T19:27:03.542Z,9.70
2017-10-24T19:29:31.183Z,9.70
2017-10-24T19:31:58.898Z,9.70
2017-10-24T19:34:26.522Z,9.70
2017-10-24T19:36:54.690Z,9.80
2017-10-24T19:39:22.341Z,9.80
2017-10-24T19:41:49.936Z,9.80
2017-10-24T19:44:17.858Z,9.90
2017-10-24T19:46:45.507Z,10.00
2017-10-24T19:49:13.487Z,10.00
2017-10-24T19:51:41.115Z,10.00
2017-10-24T19:54:08.747Z,10.10
2017-10-24T19:56:36.385Z,10.10
2017-10-24T19:59:04.015Z,10.10
2017-10-24T20:01:31.658Z,10.10
2017-10-24T20:04:00.022Z,10.20
2017-10-24T20:06:28.252Z,10.10
2017-10-24T20:08:55.836Z,10.20
2017-10-24T20:11:23.470Z,10.20
2017-10-24T20:13:51.101Z,10.20
2017-10-24T20:16:18.705Z,10.20
2017-10-24T20:18:46.376Z,10.20
2017-10-24T20:21:14.004Z,10.20
2017-10-24T20:23:41.627Z,10.30
2017-10-24T20:26:09.219Z,10.30
2017-10-24T20:28:36.910Z,10.30
2017-10-24T20:31:04.528Z,10.40
2017-10-24T20:33:32.145Z,10.40
2017-10-24T20:35:59.731Z,10.40
2017-10-24T20:38:27.398Z,10.40
2017-10-24T20:40:54.994Z,10.30
2017-10-24T20:43:22.587Z,10.40
2017-10-24T20:45:50.214Z,10.40
2017-10-24T20:48:17.803Z,10.40
2017-10-24T20:50:45.401Z,10.50
2017-10-24T20:53:13.023Z,10.50
2017-10-24T20:55:40.612Z,10.50
2017-10-24T20:58:08.218Z,10.50
2017-10-24T21:00:35.836Z,10.40
2017-10-24T21:03:03.417Z,10.40
2017-10-24T21:05:31.015Z,10.40
2017-10-24T21:07:58.628Z,10.40
2017-10-24T21:10:27.019Z,10.40
2017-10-24T21:12:54.644Z,10.40
2017-10-24T21:15:22.266Z,10.30
2017-10-24T21:17:49.907Z,10.30
2017-10-24T21:20:17.617Z,10.30
2017-10-24T21:22:45.267Z,10.30
2017-10-24T21:25:12.867Z,10.30
2017-10-24T21:27:40.531Z,10.30
2017-10-24T21:30:08.171Z,10.30
2017-10-24T21:32:35.798Z,10.30
2017-10-24T21:35:03.432Z,10.30
2017-10-24T21:37:31.170Z,10.30
2017-10-24T21:39:58.802Z,10.30
2017-10-24T21:42:26.488Z,10.30
2017-10-24T21:44:54.122Z,10.30
2017-10-24T21:47:21.752Z,10.30
2017-10-24T21:49:49.390Z,10.30
2017-10-24T21:52:17.015Z,10.30
2017-10-24T21:54:44.646Z,10.40
2017-10-24T21:57:12.284Z,10.30
2017-10-24T21:59:40.674Z,10.30
2017-10-24T22:02:08.307Z,10.30
2017-10-24T22:04:35.935Z,10.30
2017-10-24T22:07:03.538Z,10.30
2017-10-24T22:09:31.187Z,10.30
2017-10-24T22:11:59.084Z,10.40
2017-10-24T22:14:27.474Z,10.40
2017-10-24T22:16:55.101Z,10.40
2017-10-24T22:19:22.737Z,10.40
2017-10-24T22:21:50.378Z,10.50
2017-10-24T22:24:17.978Z,10.50
2017-10-24T22:26:45.699Z,10.50
2017-10-24T22:29:14.201Z,10.50
2017-10-24T22:31:41.793Z,10.50
2017-10-24T22:34:09.443Z,10.50
2017-10-24T22:36:37.034Z,10.50
2017-10-24T22:39:04.665Z,10.50
2017-10-24T22:41:33.063Z,10.50
2017-10-24T22:44:00.696Z,10.50
2017-10-24T22:46:28.322Z,10.50
2017-10-24T22:48:55.947Z,10.50
2017-10-24T22:51:23.522Z,10.50
2017-10-24T22:53:51.145Z,10.50
2017-10-24T22:56:18.731Z,10.50
2017-10-24T22:58:46.397Z,10.50
2017-10-24T23:01:14.796Z,10.50
2017-10-24T23:03:42.385Z,10.50
2017-10-24T23:06:10.016Z,10.50
2017-10-24T23:08:37.601Z,10.50
2017-10-24T23:11:05.186Z,10.50
2017-10-24T23:13:32.781Z,10.50
2017-10-24T23:16:00.406Z,10.50
2017-10-24T23:18:28.056Z,10.50
2017-10-24T23:20:55.734Z,10.50
2017-10-24T23:23:23.370Z,10.50
2017-10-24T23:25:51.055Z,10.60
2017-10-24T23:28:18.691Z,10.60
2017-10-24T23:30:46.286Z,10.60
2017-10-24T23:33:13.911Z,10.50
2017-10-24T23:35:41.538Z,10.50
2017-10-24T23:38:09.759Z,10.50
2017-10-24T23:40:37.380Z,10.50
2017-10-24T23:43:05.731Z,10.50
2017-10-24T23:45:33.358Z,10.50
2017-10-24T23:48:00.982Z,10.50
2017-10-24T23:50:28.621Z,10.50
2017-10-24T23:52:56.173Z,10.60
2017-10-24T23:55:24.216Z,10.60
2017-10-24T23:57:51.848Z,10.60
